createdAt,value
2018-09-08T00:03:18.884Z,20.40
2018-09-08T00:08:23.731Z,20.40
2018-09-08T00:13:28.601Z,20.40
2018-09-08T00:18:38.609Z,20.40
2018-09-08T00:23:48.523Z,20.20
2018-09-08T00:29:03.377Z,20.20
2018-09-08T00:34:08.461Z,20.30
2018-09-08T00:39:13.345Z,20.30
2018-09-08T00:44:18.568Z,20.30
2018-09-08T00:49:23.558Z,20.40
2018-09-08T00:54:28.411Z,20.40
2018-09-08T00:59:33.267Z,20.50
2018-09-08T01:04:38.996Z,20.50
2018-09-08T01:09:43.973Z,20.50
2018-09-08T01:14:48.846Z,20.40
2018-09-08T01:19:53.827Z,20.30
2018-09-08T01:24:59.123Z,20.20
2018-09-08T01:30:04.196Z,20.20
2018-09-08T01:35:09.107Z,20.20
2018-09-08T01:40:13.946Z,20.10
2018-09-08T01:45:18.991Z,20.10
2018-09-08T01:50:23.827Z,20.10
2018-09-08T01:55:28.843Z,20.00
2018-09-08T02:00:34.779Z,20.10
2018-09-08T02:05:39.742Z,20.10
2018-09-08T02:10:44.774Z,20.10
2018-09-08T02:15:49.692Z,20.00
2018-09-08T02:20:54.574Z,20.20
2018-09-08T02:26:01.806Z,20.30
2018-09-08T02:31:06.848Z,20.10
2018-09-08T02:36:11.803Z,20.20
2018-09-08T02:41:16.728Z,20.30
2018-09-08T02:46:21.785Z,20.30
2018-09-08T02:51:25.154Z,20.10
2018-09-08T02:56:28.642Z,20.10
2018-09-08T03:01:32.019Z,20.20
2018-09-08T03:06:35.393Z,20.10
2018-09-08T03:11:39.681Z,20.10
2018-09-08T03:16:43.147Z,20.30
2018-09-08T03:21:46.615Z,20.30
2018-09-08T03:26:49.983Z,20.20
2018-09-08T03:31:53.347Z,20.30
2018-09-08T03:36:56.796Z,20.30
2018-09-08T03:42:00.184Z,20.10
2018-09-08T03:47:03.606Z,20.20
2018-09-08T03:52:07.036Z,20.30
2018-09-08T03:57:10.427Z,20.30
2018-09-08T04:02:13.807Z,20.30
2018-09-08T04:07:18.750Z,20.30
2018-09-08T04:12:23.801Z,20.30
2018-09-08T04:17:29.617Z,20.40
2018-09-08T04:22:35.982Z,20.40
2018-09-08T04:27:40.961Z,20.40
2018-09-08T04:32:45.979Z,20.40
2018-09-08T04:37:50.872Z,20.30
2018-09-08T04:42:55.889Z,20.30
2018-09-08T04:48:00.788Z,20.30
2018-09-08T04:53:05.892Z,20.40
2018-09-08T04:58:10.865Z,20.20
2018-09-08T05:03:15.887Z,20.20
2018-09-08T05:08:21.001Z,20.00
2018-09-08T05:13:26.247Z,20.20
2018-09-08T05:18:31.244Z,20.20
2018-09-08T05:23:36.159Z,20.20
2018-09-08T05:28:41.263Z,20.10
2018-09-08T05:33:46.122Z,20.20
2018-09-08T05:38:50.949Z,20.20
2018-09-08T05:43:56.344Z,20.10
2018-09-08T05:49:01.482Z,20.20
2018-09-08T05:54:06.511Z,20.30
2018-09-08T05:59:11.354Z,20.30
2018-09-08T06:04:16.624Z,20.60
2018-09-08T06:09:21.714Z,20.80
2018-09-08T06:14:26.649Z,21.00
2018-09-08T06:19:31.493Z,21.10
2018-09-08T06:24:36.605Z,21.10
2018-09-08T06:29:41.627Z,21.10
2018-09-08T06:34:47.226Z,21.10
2018-09-08T06:39:52.643Z,21.20
2018-09-08T06:44:57.633Z,21.40
2018-09-08T06:50:02.633Z,21.70
2018-09-08T06:55:07.553Z,21.70
2018-09-08T07:00:12.505Z,21.80
2018-09-08T07:05:17.408Z,21.90
2018-09-08T07:10:22.336Z,22.10
2018-09-08T07:15:27.386Z,22.10
2018-09-08T07:20:32.405Z,22.30
2018-09-08T07:25:37.289Z,22.50
2018-09-08T07:30:42.128Z,22.80
2018-09-08T07:35:47.132Z,23.10
2018-09-08T07:40:52.292Z,23.30
2018-09-08T07:45:57.206Z,23.40
2018-09-08T07:51:02.219Z,23.50
2018-09-08T07:56:07.484Z,23.50
2018-09-08T08:01:12.621Z,24.10
2018-09-08T08:06:17.472Z,24.50
2018-09-08T08:11:22.388Z,24.80
2018-09-08T08:16:27.362Z,25.10
2018-09-08T08:21:32.324Z,25.20
2018-09-08T08:26:37.819Z,25.20
2018-09-08T08:31:42.738Z,25.20
2018-09-08T08:36:47.998Z,25.30
2018-09-08T08:41:52.910Z,25.70
2018-09-08T08:46:57.941Z,25.70
2018-09-08T08:52:13.628Z,25.70
2018-09-08T08:57:18.508Z,25.70
2018-09-08T09:02:23.800Z,25.70
2018-09-08T09:07:28.767Z,25.80
2018-09-08T09:12:34.282Z,25.90
2018-09-08T09:17:39.541Z,25.90
2018-09-08T09:22:55.539Z,25.90
2018-09-08T09:28:00.444Z,26.00
2018-09-08T09:33:05.384Z,26.10
2018-09-08T09:38:10.325Z,26.10
2018-09-08T09:43:15.185Z,26.10
2018-09-08T09:48:20.112Z,26.20
2018-09-08T09:53:25.122Z,26.20
2018-09-08T09:58:30.149Z,26.30
2018-09-08T10:03:35.445Z,26.70
2018-09-08T10:08:40.285Z,26.80
2018-09-08T10:13:45.308Z,26.80
2018-09-08T10:18:50.824Z,27.00
2018-09-08T10:24:05.153Z,27.10
2018-09-08T10:29:01.145Z,27.00
2018-09-08T10:34:06.098Z,27.40
2018-09-08T10:39:11.415Z,27.60
2018-09-08T10:44:16.515Z,27.30
2018-09-08T10:49:21.472Z,27.80
2018-09-08T10:54:26.467Z,27.90
2018-09-08T10:59:31.477Z,28.20
2018-09-08T11:04:36.421Z,27.80
2018-09-08T11:09:41.343Z,27.90
2018-09-08T11:14:46.842Z,27.80
2018-09-08T11:19:51.706Z,27.70
2018-09-08T11:24:56.636Z,28.40
2018-09-08T11:30:01.590Z,29.30
2018-09-08T11:35:06.613Z,29.80
2018-09-08T11:40:11.460Z,30.10
2018-09-08T11:45:17.773Z,30.50
2018-09-08T11:50:22.645Z,30.60
2018-09-08T11:55:28.197Z,30.70
2018-09-08T12:00:33.138Z,31.30
2018-09-08T12:05:38.119Z,31.50
2018-09-08T12:10:43.148Z,30.90
2018-09-08T12:15:48.025Z,30.70
2018-09-08T12:20:52.980Z,30.40
2018-09-08T12:25:57.867Z,30.00
2018-09-08T12:31:02.952Z,29.50
2018-09-08T12:36:07.874Z,29.40
2018-09-08T12:41:13.048Z,29.60
2018-09-08T12:46:17.965Z,29.90
2018-09-08T12:51:22.936Z,29.90
2018-09-08T12:56:28.267Z,30.10
2018-09-08T13:01:33.336Z,29.80
2018-09-08T13:06:38.188Z,29.10
2018-09-08T13:11:43.108Z,29.10
2018-09-08T13:16:48.094Z,29.60
2018-09-08T13:21:53.059Z,29.60
2018-09-08T13:26:57.970Z,29.70
2018-09-08T13:32:02.976Z,30.30
2018-09-08T13:37:07.848Z,30.40
2018-09-08T13:42:12.860Z,30.20
2018-09-08T13:47:17.866Z,30.30
2018-09-08T13:52:22.779Z,30.00
2018-09-08T13:57:27.725Z,29.30
2018-09-08T14:02:33.529Z,28.90
2018-09-08T14:07:42.471Z,28.90
2018-09-08T14:12:47.539Z,28.70
